Time;durP1;ratioP1;P1;durP2;ratioP2;P2;SDS_P1;SDS_P2;PMS_P1;PMS_P2;Temp;Humidity;BMP_temperature;BMP_pressure;BME280_temperature;BME280_humidity;BME280_pressure;Samples;Min_cycle;Max_cycle;Signal;HPM_P1;HPM_P2
2023/04/07 00:00:03;;;;;;;;;1.80;1.00;;;;;7.84;70.29;99675.47;5115705;28;8831;-62
2023/04/07 00:02:31;;;;;;;;;3.00;3.00;;;;;7.84;70.16;99664.88;5115439;28;8874;-60
2023/04/07 00:05:01;;;;;;;;;3.00;3.00;;;;;7.85;70.32;99666.56;5115999;28;8913;-60
2023/04/07 00:07:29;;;;;;;;;3.60;3.40;;;;;7.87;69.96;99667.31;5115683;28;8858;-61
2023/04/07 00:09:57;;;;;;;;;1.00;1.00;;;;;7.89;69.60;99660.09;5115829;28;8851;-60
2023/04/07 00:12:25;;;;;;;;;3.00;2.20;;;;;7.92;70.22;99665.16;5115520;28;8844;-59
2023/04/07 00:14:52;;;;;;;;;1.80;1.80;;;;;7.96;70.06;99671.94;5115721;28;8828;-59
2023/04/07 00:17:20;;;;;;;;;4.40;4.40;;;;;8.00;69.80;99675.22;5115500;28;8958;-60
2023/04/07 00:19:48;;;;;;;;;3.00;3.00;;;;;8.01;69.79;99676.91;5115410;28;8843;-61
2023/04/07 00:22:16;;;;;;;;;3.00;3.00;;;;;8.02;69.53;99679.44;5115655;28;8840;-59
2023/04/07 00:24:44;;;;;;;;;1.00;1.00;;;;;8.03;69.43;99675.84;5115107;28;8840;-59
2023/04/07 00:27:12;;;;;;;;;0.00;0.00;;;;;8.05;69.36;99665.97;5114559;28;8862;-59
2023/04/07 00:29:42;;;;;;;;;2.60;2.20;;;;;8.07;69.39;99666.69;5115233;28;8827;-61
2023/04/07 00:32:10;;;;;;;;;4.00;4.00;;;;;8.08;69.44;99657.78;5115236;28;8851;-60
2023/04/07 00:34:38;;;;;;;;;4.00;4.00;;;;;8.09;69.45;99661.28;5115357;28;8866;-61
2023/04/07 00:37:05;;;;;;;;;4.00;4.00;;;;;8.10;69.27;99653.22;5115759;28;8846;-61
2023/04/07 00:39:33;;;;;;;;;4.00;4.00;;;;;8.12;68.99;99661.91;5115473;28;8834;-61
2023/04/07 00:42:01;;;;;;;;;3.80;3.80;;;;;8.12;69.39;99661.91;5116634;28;8828;-61
2023/04/07 00:44:29;;;;;;;;;6.00;3.00;;;;;8.13;69.26;99652.97;5119524;28;8831;-61
2023/04/07 00:46:57;;;;;;;;;3.00;3.00;;;;;8.14;68.66;99652.00;5119150;28;8850;-61
2023/04/07 00:49:27;;;;;;;;;3.60;3.40;;;;;8.17;69.19;99648.28;5119015;28;8819;-61
2023/04/07 00:51:54;;;;;;;;;3.00;3.00;;;;;8.17;69.06;99645.63;5118973;28;8852;-61
2023/04/07 00:54:22;;;;;;;;;3.00;3.00;;;;;8.18;68.59;99644.69;5119044;28;8967;-62
2023/04/07 00:56:50;;;;;;;;;3.20;3.20;;;;;8.17;69.15;99643.00;5119283;28;9553;-59
2023/04/07 00:59:18;;;;;;;;;6.25;4.00;;;;;8.16;69.11;99643.94;5118107;28;8816;-61
2023/04/07 01:01:46;;;;;;;;;1.00;1.00;;;;;8.14;68.60;99638.75;5119358;28;9762;-61
2023/04/07 01:04:13;;;;;;;;;1.00;1.00;;;;;8.13;69.01;99633.59;5118756;28;8946;-61
2023/04/07 01:06:41;;;;;;;;;5.20;4.80;;;;;8.12;68.93;99638.03;5118854;28;8824;-62
2023/04/07 01:09:10;;;;;;;;;3.00;3.00;;;;;8.10;69.03;99637.31;5118994;28;8820;-61
2023/04/07 01:11:37;;;;;;;;;4.00;3.00;;;;;8.10;69.16;99634.66;5118654;28;8840;-59
2023/04/07 01:14:05;;;;;;;;;2.60;2.60;;;;;8.11;69.29;99639.00;5118725;28;8859;-61
2023/04/07 01:16:33;;;;;;;;;5.20;5.20;;;;;8.12;69.14;99638.03;5118896;28;8836;-61
2023/04/07 01:19:01;;;;;;;;;3.00;3.00;;;;;8.11;69.18;99633.69;5118844;28;8836;-59
2023/04/07 01:21:28;;;;;;;;;3.80;3.80;;;;;8.13;69.40;99631.75;5118749;28;8820;-61
2023/04/07 01:23:56;;;;;;;;;5.60;4.40;;;;;8.15;68.95;99629.00;5118476;28;8840;-61
2023/04/07 01:26:24;;;;;;;;;2.60;2.60;;;;;8.16;68.90;99628.03;5118816;28;8827;-61
2023/04/07 01:28:51;;;;;;;;;4.00;3.80;;;;;8.17;68.38;99625.28;5118168;28;8824;-59
2023/04/07 01:31:19;;;;;;;;;3.00;3.00;;;;;8.18;68.92;99623.47;5118032;28;8831;-61
2023/04/07 01:33:47;;;;;;;;;3.00;3.00;;;;;8.19;68.68;99622.53;5118205;28;8925;-61
2023/04/07 01:36:15;;;;;;;;;4.00;3.40;;;;;8.20;68.78;99613.63;5118842;28;8877;-60
2023/04/07 01:38:42;;;;;;;;;4.00;4.00;;;;;8.20;68.81;99625.06;5119104;28;8840;-62
2023/04/07 01:41:10;;;;;;;;;3.80;3.80;;;;;8.20;68.82;99619.78;5118463;28;8834;-61
2023/04/07 01:43:38;;;;;;;;;4.00;3.40;;;;;8.21;68.91;99621.47;5119438;28;8851;-61
2023/04/07 01:46:07;;;;;;;;;2.60;1.80;;;;;8.22;68.86;99617.84;5118658;28;8838;-61
2023/04/07 01:48:34;;;;;;;;;5.20;4.80;;;;;8.23;69.18;99616.91;5118459;28;8873;-61
2023/04/07 01:51:03;;;;;;;;;4.00;3.00;;;;;8.22;69.27;99617.84;5118592;28;8840;-59
2023/04/07 01:53:30;;;;;;;;;3.00;3.00;;;;;8.24;68.95;99615.09;5118361;28;8839;-60
2023/04/07 01:55:58;;;;;;;;;5.20;4.80;;;;;8.23;68.82;99611.59;5118159;28;8836;-61
2023/04/07 01:58:26;;;;;;;;;4.00;3.80;;;;;8.24;68.96;99617.72;5118213;28;8839;-60
2023/04/07 02:00:54;;;;;;;;;6.00;6.00;;;;;8.25;68.88;99614.13;5118261;28;8839;-60
2023/04/07 02:03:22;;;;;;;;;3.80;3.80;;;;;8.24;69.01;99615.94;5117822;28;8824;-60
2023/04/07 02:05:50;;;;;;;;;4.80;4.80;;;;;8.26;68.97;99614.00;5117716;28;8835;-59
2023/04/07 02:08:18;;;;;;;;;4.80;3.60;;;;;8.27;69.02;99621.00;5118556;28;8831;-59
2023/04/07 02:10:46;;;;;;;;;5.60;3.00;;;;;8.29;68.51;99613.78;5118314;28;8881;-59
2023/04/07 02:13:13;;;;;;;;;5.60;5.60;;;;;8.28;68.89;99614.72;5118071;28;8852;-60
2023/04/07 02:15:41;;;;;;;;;3.80;3.80;;;;;8.30;68.77;99618.09;5117880;28;8900;-59
2023/04/07 02:18:11;;;;;;;;;6.00;6.00;;;;;8.31;68.78;99613.66;5117308;28;8831;-60
2023/04/07 02:20:39;;;;;;;;;1.00;1.00;;;;;8.32;68.67;99610.03;5117787;28;8831;-59
2023/04/07 02:23:07;;;;;;;;;6.40;5.60;;;;;8.32;68.66;99602.94;5117947;28;8893;-60
2023/04/07 02:25:37;;;;;;;;;4.00;3.25;;;;;8.34;68.84;99613.41;5117858;28;8816;-58
2023/04/07 02:28:04;;;;;;;;;3.00;3.00;;;;;8.34;68.33;99610.75;5117494;28;8823;-59
2023/04/07 02:30:32;;;;;;;;;4.50;4.00;;;;;8.35;68.67;99615.13;5117659;28;8835;-61
2023/04/07 02:33:00;;;;;;;;;4.00;4.00;;;;;8.35;68.16;99617.78;5117550;28;8846;-60
2023/04/07 02:35:28;;;;;;;;;3.75;3.50;;;;;8.35;68.37;99608.00;5117734;28;8822;-59
2023/04/07 02:37:56;;;;;;;;;3.00;3.00;;;;;8.36;68.12;99609.69;5117726;28;8843;-60
2023/04/07 02:40:23;;;;;;;;;2.50;2.50;;;;;8.37;68.34;99607.91;5117705;28;8816;-58
2023/04/07 02:42:51;;;;;;;;;4.00;3.25;;;;;8.37;68.40;99600.75;5117653;28;8820;-61
2023/04/07 02:45:19;;;;;;;;;3.75;3.75;;;;;8.38;68.57;99610.41;5118016;28;8863;-58
2023/04/07 02:47:47;;;;;;;;;3.75;3.50;;;;;8.39;68.07;99612.13;5117672;28;8820;-58
2023/04/07 02:50:15;;;;;;;;;6.00;4.50;;;;;8.39;68.55;99612.13;5117240;28;8893;-60
2023/04/07 02:52:42;;;;;;;;;4.00;3.50;;;;;8.40;68.38;99611.16;5117406;28;8835;-60
2023/04/07 02:55:10;;;;;;;;;6.00;4.00;;;;;8.39;68.40;99606.81;5117129;28;8839;-60
2023/04/07 02:57:38;;;;;;;;;5.50;5.50;;;;;8.39;68.52;99609.47;5117473;28;8816;-59
2023/04/07 03:00:06;;;;;;;;;2.25;2.25;;;;;8.39;68.38;99601.53;5117502;28;8832;-59
2023/04/07 03:02:34;;;;;;;;;3.75;3.75;;;;;8.39;68.52;99608.63;5117354;28;8844;-58
2023/04/07 03:05:03;;;;;;;;;4.50;4.50;;;;;8.39;68.48;99606.81;5116231;28;8820;-59
2023/04/07 03:07:31;;;;;;;;;3.75;3.75;;;;;8.40;68.75;99603.22;5117398;28;8812;-61
2023/04/07 03:09:58;;;;;;;;;3.00;3.00;;;;;8.40;68.46;99611.16;5116977;28;8839;-59
2023/04/07 03:12:26;;;;;;;;;3.75;3.00;;;;;8.42;68.54;99605.72;5117197;28;8855;-61
2023/04/07 03:14:54;;;;;;;;;6.00;6.00;;;;;8.42;68.48;99603.06;5116940;28;8820;-59
2023/04/07 03:17:22;;;;;;;;;4.00;4.00;;;;;8.42;68.58;99606.56;5117221;28;8840;-60
2023/04/07 03:19:50;;;;;;;;;3.25;3.25;;;;;8.42;68.53;99603.94;5116821;28;8832;-60
2023/04/07 03:22:18;;;;;;;;;6.00;6.00;;;;;8.42;68.67;99611.88;5116516;28;8828;-61
2023/04/07 03:24:46;;;;;;;;;7.25;5.50;;;;;8.42;68.44;99606.56;5117031;28;8852;-61
2023/04/07 03:27:13;;;;;;;;;4.20;3.40;;;;;8.42;68.83;99603.06;5116379;28;8925;-62
2023/04/07 03:29:41;;;;;;;;;7.50;5.00;;;;;8.41;68.67;99598.72;5116152;28;8824;-60
2023/04/07 03:32:09;;;;;;;;;6.00;4.00;;;;;8.42;69.03;99600.41;5116893;28;8890;-61
2023/04/07 03:34:36;;;;;;;;;3.00;3.00;;;;;8.43;68.39;99600.31;5116832;28;8843;-61
2023/04/07 03:37:04;;;;;;;;;3.25;2.50;;;;;8.44;68.72;99606.47;5116948;28;8823;-58
2023/04/07 03:39:32;;;;;;;;;7.00;6.00;;;;;8.44;68.49;99598.50;5116850;28;8831;-60
2023/04/07 03:41:59;;;;;;;;;3.75;3.75;;;;;8.45;68.60;99603.69;5117075;28;9470;-61
2023/04/07 03:44:27;;;;;;;;;5.50;5.50;;;;;8.45;68.57;99598.38;5116553;28;8816;-60
2023/04/07 03:46:55;;;;;;;;;4.25;3.75;;;;;8.45;68.54;99601.03;5116550;28;8877;-59
2023/04/07 03:49:22;;;;;;;;;7.00;6.00;;;;;8.45;68.44;99597.53;5116540;28;8929;-60
2023/04/07 03:51:50;;;;;;;;;7.00;6.75;;;;;8.45;68.71;99608.16;5116194;28;8839;-60
2023/04/07 03:54:17;;;;;;;;;7.00;6.00;;;;;8.44;68.62;99609.94;5116253;28;8816;-59
2023/04/07 03:56:45;;;;;;;;;3.50;3.50;;;;;8.44;68.68;99607.28;5116936;28;9490;-59
2023/04/07 03:59:13;;;;;;;;;6.00;4.50;;;;;8.45;68.89;99608.16;5116226;28;8850;-59
2023/04/07 04:01:41;;;;;;;;;4.00;4.00;;;;;8.44;68.65;99604.66;5116732;28;8830;-61
2023/04/07 04:04:09;;;;;;;;;7.25;7.25;;;;;8.43;68.70;99600.31;5116656;28;8986;-61
2023/04/07 04:06:37;;;;;;;;;6.00;4.00;;;;;8.43;68.73;99608.25;5116226;28;8820;-60
2023/04/07 04:09:05;;;;;;;;;3.50;3.50;;;;;8.43;68.74;99604.78;5116721;28;8857;-59
2023/04/07 04:11:33;;;;;;;;;4.00;4.00;;;;;8.43;68.92;99610.91;5116690;28;8847;-59
2023/04/07 04:14:00;;;;;;;;;5.00;4.00;;;;;8.43;68.61;99615.41;5116148;28;8847;-61
2023/04/07 04:16:28;;;;;;;;;5.50;5.00;;;;;8.43;69.06;99623.34;5117708;28;8824;-61
2023/04/07 04:18:56;;;;;;;;;4.50;4.00;;;;;8.43;69.24;99612.75;5120107;28;8823;-60
2023/04/07 04:21:25;;;;;;;;;3.75;3.50;;;;;8.43;68.81;99613.56;5119857;28;8847;-61
2023/04/07 04:23:53;;;;;;;;;6.50;6.50;;;;;8.43;68.66;99612.75;5120343;28;8832;-61
2023/04/07 04:26:24;;;;;;;;;7.40;7.00;;;;;8.43;68.60;99616.22;5119952;28;8963;-61
2023/04/07 04:28:52;;;;;;;;;4.00;4.00;;;;;8.43;68.83;99615.41;5119573;28;8954;-60
2023/04/07 04:31:20;;;;;;;;;4.00;3.25;;;;;8.44;68.37;99614.44;5120005;28;8824;-59
2023/04/07 04:33:48;;;;;;;;;4.00;4.00;;;;;8.44;69.09;99623.22;5120196;28;8905;-61
2023/04/07 04:36:16;;;;;;;;;3.00;3.00;;;;;8.45;69.02;99619.59;5120119;28;9488;-61
2023/04/07 04:38:43;;;;;;;;;3.00;3.00;;;;;8.46;69.05;99621.31;5120169;28;9520;-60
2023/04/07 04:41:11;;;;;;;;;5.00;3.75;;;;;8.47;68.96;99622.16;5119959;28;8851;-60
2023/04/07 04:43:39;;;;;;;;;4.50;4.00;;;;;8.47;68.59;99622.16;5120165;28;8843;-60
2023/04/07 04:46:07;;;;;;;;;3.40;3.40;;;;;8.47;68.80;99625.66;5119463;28;8871;-59
2023/04/07 04:48:35;;;;;;;;;4.00;4.00;;;;;8.47;68.57;99623.00;5119634;28;8812;-59
2023/04/07 04:51:02;;;;;;;;;4.40;4.00;;;;;8.47;69.05;99622.16;5119652;28;9524;-58
2023/04/07 04:53:30;;;;;;;;;4.00;2.00;;;;;8.47;68.62;99627.44;5119413;28;9025;-61
2023/04/07 04:55:58;;;;;;;;;3.00;3.00;;;;;8.46;68.74;99631.94;5119437;28;8855;-59
2023/04/07 04:58:25;;;;;;;;;8.40;5.80;;;;;8.46;68.72;99629.28;5119212;28;8909;-59
2023/04/07 05:00:56;;;;;;;;;5.00;4.75;;;;;8.47;68.88;99627.44;5119031;28;8812;-62
2023/04/07 05:03:25;;;;;;;;;3.25;3.25;;;;;8.46;68.76;99631.94;5119083;28;8913;-60
2023/04/07 05:05:53;;;;;;;;;7.50;6.50;;;;;8.46;68.90;99637.22;5119198;28;8839;-60
2023/04/07 05:08:21;;;;;;;;;4.00;3.25;;;;;8.47;68.93;99632.75;5119092;28;8828;-60
2023/04/07 05:10:49;;;;;;;;;3.00;1.80;;;;;8.47;69.09;99633.63;5119166;28;8878;-59
2023/04/07 05:13:17;;;;;;;;;4.00;4.00;;;;;8.48;69.13;99634.44;5118949;28;8855;-61
2023/04/07 05:15:45;;;;;;;;;6.00;6.00;;;;;8.49;69.11;99637.00;5119069;28;9562;-61
2023/04/07 05:18:13;;;;;;;;;4.00;3.00;;;;;8.48;68.50;99640.59;5118819;28;8828;-58
2023/04/07 05:20:40;;;;;;;;;3.75;3.50;;;;;8.49;69.18;99642.28;5119183;28;8831;-61
2023/04/07 05:23:08;;;;;;;;;2.00;1.00;;;;;8.50;69.12;99641.34;5119017;28;8910;-62
2023/04/07 05:25:36;;;;;;;;;4.00;4.00;;;;;8.49;68.66;99639.66;5119096;28;8808;-59
2023/04/07 05:28:03;;;;;;;;;4.00;3.00;;;;;8.50;68.72;99643.97;5118161;28;9466;-62
2023/04/07 05:30:31;;;;;;;;;5.20;4.00;;;;;8.51;68.57;99650.16;5118841;28;8828;-59
2023/04/07 05:32:59;;;;;;;;;5.00;5.00;;;;;8.51;68.71;99650.97;5119156;28;8812;-60
2023/04/07 05:35:26;;;;;;;;;5.50;3.50;;;;;8.53;68.68;99646.38;5119174;28;8811;-60
2023/04/07 05:37:54;;;;;;;;;3.75;3.00;;;;;8.55;69.07;99651.59;5119473;28;8828;-60
2023/04/07 05:40:22;;;;;;;;;6.00;3.25;;;;;8.57;69.10;99660.28;5118523;28;8908;-59
2023/04/07 05:42:49;;;;;;;;;4.60;3.60;;;;;8.57;68.80;99652.31;5118518;28;8846;-59
2023/04/07 05:45:17;;;;;;;;;3.00;3.00;;;;;8.58;69.06;99652.19;5118774;28;8850;-59
2023/04/07 05:47:46;;;;;;;;;1.00;1.00;;;;;8.60;68.98;99662.72;5118573;28;8989;-61
2023/04/07 05:50:14;;;;;;;;;4.40;4.00;;;;;8.60;68.74;99660.06;5118515;28;8950;-60
2023/04/07 05:52:41;;;;;;;;;3.50;2.75;;;;;8.61;68.83;99651.13;5118166;28;8870;-60
2023/04/07 05:55:09;;;;;;;;;6.00;6.00;;;;;8.62;68.92;99658.13;5118185;28;8830;-59
2023/04/07 05:57:37;;;;;;;;;1.00;1.00;;;;;8.63;69.09;99657.16;5118085;28;8926;-58
2023/04/07 06:00:04;;;;;;;;;4.40;3.40;;;;;8.62;68.87;99661.63;5118068;28;8840;-61
2023/04/07 06:02:33;;;;;;;;;3.50;2.75;;;;;8.64;68.95;99662.34;5118339;28;8840;-59
2023/04/07 06:05:00;;;;;;;;;1.00;1.00;;;;;8.66;68.89;99657.78;5117523;28;8955;-62
2023/04/07 06:07:28;;;;;;;;;6.75;6.50;;;;;8.66;68.63;99665.72;5117739;28;8847;-61
2023/04/07 06:09:56;;;;;;;;;6.00;6.00;;;;;8.67;68.84;99667.44;5117236;28;8862;-59
2023/04/07 06:12:23;;;;;;;;;4.50;4.50;;;;;8.69;68.93;99670.84;5118263;28;8848;-59
2023/04/07 06:14:51;;;;;;;;;3.25;3.25;;;;;8.71;68.70;99676.84;5118106;28;8859;-60
2023/04/07 06:17:19;;;;;;;;;3.00;3.00;;;;;8.73;68.89;99677.56;5118094;28;8823;-59
2023/04/07 06:19:47;;;;;;;;;3.75;3.75;;;;;8.75;68.83;99674.81;5117936;28;8824;-61
2023/04/07 06:22:14;;;;;;;;;3.00;3.00;;;;;8.75;68.28;99686.25;5117839;28;8831;-60
2023/04/07 06:24:42;;;;;;;;;4.00;3.50;;;;;8.78;69.05;99679.88;5117940;28;8824;-61
2023/04/07 06:27:10;;;;;;;;;3.00;3.00;;;;;8.80;69.00;99684.13;5117767;28;8855;-61
2023/04/07 06:29:38;;;;;;;;;3.00;3.00;;;;;8.80;68.67;99684.13;5116228;28;8951;-59
2023/04/07 06:32:06;;;;;;;;;4.00;3.25;;;;;8.83;68.44;99678.56;5117123;28;8901;-59
2023/04/07 06:34:33;;;;;;;;;3.75;3.75;;;;;8.86;68.63;99683.66;5116780;28;8847;-59
2023/04/07 06:37:02;;;;;;;;;4.00;4.00;;;;;8.88;68.77;99687.03;5116514;28;8820;-59
2023/04/07 06:39:30;;;;;;;;;1.00;1.00;;;;;8.92;68.66;99692.94;5115996;28;8840;-59
2023/04/07 06:41:57;;;;;;;;;3.00;3.00;;;;;8.95;68.55;99690.91;5116855;28;8855;-58
2023/04/07 06:44:25;;;;;;;;;3.25;3.25;;;;;8.97;68.70;99694.28;5117186;28;8812;-58
2023/04/07 06:46:54;;;;;;;;;3.00;2.25;;;;;9.01;68.49;99692.22;5117087;28;8827;-58
2023/04/07 06:49:22;;;;;;;;;5.00;5.00;;;;;9.01;68.64;99693.09;5117239;28;8832;-61
2023/04/07 06:51:50;;;;;;;;;3.50;3.00;;;;;9.05;68.45;99694.53;5117324;28;9525;-61
2023/04/07 06:54:18;;;;;;;;;3.50;3.25;;;;;9.07;68.55;99699.72;5117164;28;8974;-61
2023/04/07 06:56:45;;;;;;;;;5.50;3.75;;;;;9.06;68.39;99704.22;5116899;28;8815;-61
2023/04/07 06:59:13;;;;;;;;;4.00;4.00;;;;;9.09;68.45;99701.31;5116817;28;8839;-60
2023/04/07 07:01:46;;;;;;;;;6.75;6.25;;;;;9.16;68.48;99706.97;5131128;27;13364;-61
2023/04/07 07:04:14;;;;;;;;;4.75;4.75;;;;;9.26;68.33;99705.31;5113609;28;8823;-59
2023/04/07 07:06:42;;;;;;;;;6.00;4.00;;;;;9.36;67.83;99706.28;5113066;28;8824;-60
2023/04/07 07:09:10;;;;;;;;;5.00;4.00;;;;;9.42;67.49;99703.97;5113113;28;8842;-59
2023/04/07 07:11:39;;;;;;;;;3.00;3.00;;;;;9.43;67.92;99705.66;5113057;28;8835;-59
2023/04/07 07:14:07;;;;;;;;;3.00;2.50;;;;;9.46;67.79;99705.44;5113066;28;8811;-61
2023/04/07 07:16:36;;;;;;;;;6.50;6.00;;;;;9.50;67.88;99717.50;5113560;28;8835;-59
2023/04/07 07:19:03;;;;;;;;;5.00;5.00;;;;;9.53;67.48;99711.97;5113366;28;8831;-58
2023/04/07 07:21:31;;;;;;;;;3.00;3.00;;;;;9.57;67.64;99710.75;5112824;28;8820;-57
2023/04/07 07:23:59;;;;;;;;;3.00;3.00;;;;;9.59;67.78;99715.94;5112834;28;8865;-59
2023/04/07 07:26:26;;;;;;;;;6.50;5.50;;;;;9.61;67.91;99719.31;5112729;28;8819;-59
2023/04/07 07:28:55;;;;;;;;;4.50;4.50;;;;;9.61;67.93;99729.94;5113418;28;8836;-59
2023/04/07 07:31:22;;;;;;;;;4.00;4.00;;;;;9.62;67.93;99727.19;5113501;28;8868;-59
2023/04/07 07:33:51;;;;;;;;;5.00;4.00;;;;;9.65;67.89;99734.06;5113175;28;8854;-58
2023/04/07 07:36:18;;;;;;;;;6.75;6.00;;;;;9.66;67.96;99733.94;5112407;28;8824;-59
2023/04/07 07:38:46;;;;;;;;;1.00;1.00;;;;;9.67;68.17;99733.00;5110284;28;8831;-59
2023/04/07 07:41:14;;;;;;;;;6.50;5.50;;;;;9.68;67.92;99737.34;5112515;28;8962;-59
2023/04/07 07:43:42;;;;;;;;;4.00;4.00;;;;;9.69;68.11;99739.03;5112678;28;8808;-59
2023/04/07 07:46:10;;;;;;;;;6.00;6.00;;;;;9.68;67.93;99739.13;5112199;28;8811;-59
2023/04/07 07:48:37;;;;;;;;;6.25;6.00;;;;;9.68;67.99;99747.97;5112459;28;8846;-59
2023/04/07 07:51:05;;;;;;;;;7.50;7.00;;;;;9.69;68.39;99747.00;5112112;28;8824;-60
2023/04/07 07:53:33;;;;;;;;;8.00;7.00;;;;;9.72;68.34;99746.75;5112053;28;8846;-59
2023/04/07 07:56:01;;;;;;;;;4.50;4.50;;;;;9.74;68.18;99751.94;5111607;28;8904;-59
2023/04/07 07:58:30;;;;;;;;;5.50;3.75;;;;;9.74;68.71;99750.16;5112131;28;8827;-60
2023/04/07 08:00:58;;;;;;;;;11.25;8.25;;;;;9.77;68.68;99752.56;5111002;28;8850;-61
2023/04/07 08:03:26;;;;;;;;;8.50;7.50;;;;;9.77;68.23;99757.00;5106116;28;8956;-58
2023/04/07 08:05:53;;;;;;;;;6.75;6.75;;;;;9.76;68.43;99766.81;5112240;28;9492;-58
2023/04/07 08:08:21;;;;;;;;;3.25;3.25;;;;;9.77;68.80;99765.84;5104249;28;8827;-57
2023/04/07 08:10:49;;;;;;;;;9.00;7.00;;;;;9.80;68.99;99762.94;5103208;28;8899;-57
2023/04/07 08:13:17;;;;;;;;;10.50;9.75;;;;;9.83;68.20;99767.16;5091787;28;8821;-59
2023/04/07 08:15:45;;;;;;;;;9.75;9.00;;;;;9.89;68.14;99769.34;5098465;28;8829;-59
2023/04/07 08:18:13;;;;;;;;;9.25;8.00;;;;;9.96;68.34;99774.03;5098265;28;8802;-58
2023/04/07 08:20:41;;;;;;;;;10.50;8.75;;;;;10.02;68.31;99775.41;5098104;28;8926;-58
2023/04/07 08:23:09;;;;;;;;;12.00;10.00;;;;;10.06;68.20;99783.03;5097224;28;8814;-58
2023/04/07 08:25:38;;;;;;;;;9.00;8.00;;;;;10.09;68.68;99781.94;5097644;28;8842;-59
2023/04/07 08:28:06;;;;;;;;;5.75;4.75;;;;;10.12;68.31;99779.03;5097722;28;8834;-58
2023/04/07 08:30:34;;;;;;;;;12.00;10.00;;;;;10.15;68.72;99782.28;5097661;28;8838;-58
2023/04/07 08:33:02;;;;;;;;;10.75;10.50;;;;;10.17;69.06;99785.66;5097212;28;8853;-59
2023/04/07 08:35:30;;;;;;;;;6.50;5.75;;;;;10.18;69.23;99797.16;5096099;28;8833;-58
2023/04/07 08:37:58;;;;;;;;;10.75;10.75;;;;;10.20;69.13;99787.25;5096464;28;8848;-58
2023/04/07 08:40:26;;;;;;;;;8.50;6.75;;;;;10.21;69.26;99788.94;5097569;28;8856;-58
2023/04/07 08:42:54;;;;;;;;;6.00;6.00;;;;;10.22;69.18;99786.16;5098073;28;8834;-60
2023/04/07 08:45:22;;;;;;;;;12.00;9.50;;;;;10.23;69.23;99792.34;5097105;28;8993;-60
2023/04/07 08:47:50;;;;;;;;;3.75;3.50;;;;;10.21;69.46;99788.94;5097598;28;8834;-58
2023/04/07 08:50:18;;;;;;;;;11.00;8.75;;;;;10.16;69.40;99797.28;5097862;28;8945;-61
2023/04/07 08:52:46;;;;;;;;;10.25;10.00;;;;;10.14;69.77;99799.22;5096842;28;8821;-59
2023/04/07 08:55:14;;;;;;;;;9.25;7.00;;;;;10.16;70.00;99801.78;5097345;28;8832;-59
2023/04/07 08:57:42;;;;;;;;;9.25;7.00;;;;;10.20;69.37;99808.53;5097934;28;8850;-60
2023/04/07 09:00:09;;;;;;;;;12.00;11.25;;;;;10.23;69.50;99803.81;5097879;28;9496;-60
2023/04/07 09:02:37;;;;;;;;;11.00;10.00;;;;;10.28;68.90;99803.44;5097293;28;8833;-59
2023/04/07 09:05:05;;;;;;;;;12.50;11.50;;;;;10.29;69.31;99803.31;5096723;28;8818;-59
2023/04/07 09:07:34;;;;;;;;;9.00;9.00;;;;;10.28;69.76;99806.97;5096548;28;8844;-61
2023/04/07 09:10:01;;;;;;;;;7.75;6.50;;;;;10.25;69.24;99817.81;5096452;28;8940;-60
2023/04/07 09:12:29;;;;;;;;;6.75;6.25;;;;;10.20;70.01;99814.72;5096079;28;9498;-61
2023/04/07 09:14:57;;;;;;;;;5.50;5.00;;;;;10.21;69.83;99820.84;5095960;28;8818;-59
2023/04/07 09:17:25;;;;;;;;;9.00;9.00;;;;;10.25;70.01;99817.00;5096296;28;8834;-60
2023/04/07 09:19:53;;;;;;;;;7.50;6.75;;;;;10.31;69.87;99827.16;5096072;28;8822;-58
2023/04/07 09:22:21;;;;;;;;;9.75;9.75;;;;;10.36;69.89;99815.16;5096019;28;8861;-61
2023/04/07 09:24:49;;;;;;;;;9.25;8.00;;;;;10.41;69.87;99812.13;5095188;28;8836;-61
2023/04/07 09:27:17;;;;;;;;;6.50;4.50;;;;;10.42;69.21;99822.66;5096203;28;8818;-59
2023/04/07 09:29:45;;;;;;;;;7.25;6.00;;;;;10.44;69.60;99820.72;5096258;28;8923;-60
2023/04/07 09:32:13;;;;;;;;;4.50;2.25;;;;;10.45;69.38;99818.88;5096398;28;8799;-61
2023/04/07 09:34:41;;;;;;;;;5.50;5.50;;;;;10.45;69.96;99824.19;5096352;28;8871;-59
2023/04/07 09:37:09;;;;;;;;;7.50;6.75;;;;;10.44;69.22;99822.50;5095807;28;8818;-58
2023/04/07 09:39:37;;;;;;;;;10.00;8.50;;;;;10.40;69.79;99821.09;5096050;28;8854;-61
2023/04/07 09:42:05;;;;;;;;;8.50;6.25;;;;;10.37;70.26;99827.50;5095889;28;8876;-61
2023/04/07 09:44:33;;;;;;;;;7.00;6.25;;;;;10.34;70.39;99830.41;5095978;28;8834;-59
2023/04/07 09:47:01;;;;;;;;;6.75;6.00;;;;;10.36;70.32;99824.94;5096056;28;8838;-60
2023/04/07 09:49:31;;;;;;;;;6.00;4.00;;;;;10.37;70.34;99829.31;5096307;28;8838;-61
2023/04/07 09:51:58;;;;;;;;;5.25;5.00;;;;;10.35;70.06;99834.78;5096774;28;8842;-58
2023/04/07 09:54:26;;;;;;;;;4.00;4.00;;;;;10.36;70.29;99836.47;5096254;28;8945;-60
2023/04/07 09:56:56;;;;;;;;;4.50;3.75;;;;;10.36;69.68;99832.94;5096485;28;8879;-60
2023/04/07 09:59:24;;;;;;;;;5.00;4.50;;;;;10.37;70.23;99835.47;5096158;28;8841;-61
2023/04/07 10:01:52;;;;;;;;;2.00;2.00;;;;;10.38;70.07;99839.84;5095828;28;8980;-59
2023/04/07 10:04:23;;;;;;;;;4.00;4.00;;;;;10.37;70.53;99847.94;5095423;28;8829;-62
2023/04/07 10:06:51;;;;;;;;;6.00;5.00;;;;;10.35;70.12;99841.91;5096255;28;8818;-61
2023/04/07 10:09:20;;;;;;;;;6.00;6.00;;;;;10.35;70.32;99836.56;5096188;28;8834;-59
2023/04/07 10:11:48;;;;;;;;;6.25;6.25;;;;;10.35;70.03;99841.91;5096273;28;9541;-60
2023/04/07 10:14:16;;;;;;;;;3.00;3.00;;;;;10.35;70.14;99842.75;5095628;28;8837;-61
2023/04/07 10:16:44;;;;;;;;;6.00;4.00;;;;;10.37;70.70;99847.94;5095671;28;8806;-59
2023/04/07 10:19:12;;;;;;;;;4.50;4.50;;;;;10.39;70.30;99852.16;5095521;28;8926;-62
2023/04/07 10:21:41;;;;;;;;;4.00;4.00;;;;;10.43;70.47;99852.78;5096029;28;8837;-62
2023/04/07 10:24:09;;;;;;;;;3.25;3.25;;;;;10.45;70.64;99849.03;5096255;28;8817;-61
2023/04/07 10:26:37;;;;;;;;;5.00;4.00;;;;;10.49;70.70;99847.81;5096050;28;8830;-61
2023/04/07 10:29:07;;;;;;;;;7.00;6.00;;;;;10.52;70.51;99855.53;5094406;28;8887;-61
2023/04/07 10:31:35;;;;;;;;;8.00;8.00;;;;;10.55;70.30;99846.47;5095820;28;9012;-62
2023/04/07 10:34:04;;;;;;;;;6.75;6.50;;;;;10.57;70.21;99864.03;5095499;28;8822;-59
2023/04/07 10:36:33;;;;;;;;;4.00;4.00;;;;;10.60;69.62;99855.78;5095328;28;8999;-59
2023/04/07 10:39:02;;;;;;;;;6.00;4.00;;;;;10.62;70.29;99859.16;5094972;28;9492;-59
2023/04/07 10:41:30;;;;;;;;;5.00;5.00;;;;;10.59;70.00;99867.41;5094705;28;8881;-59
2023/04/07 10:43:57;;;;;;;;;6.25;5.50;;;;;10.55;70.18;99868.59;5094854;28;8829;-58
2023/04/07 10:46:26;;;;;;;;;6.00;4.00;;;;;10.51;70.63;99867.16;5094922;28;8972;-61
2023/04/07 10:48:53;;;;;;;;;7.00;6.00;;;;;10.48;70.46;99871.91;5094843;28;8846;-61
2023/04/07 10:51:22;;;;;;;;;2.00;1.00;;;;;10.46;70.35;99874.66;5094292;28;8834;-60
2023/04/07 10:53:50;;;;;;;;;6.75;6.00;;;;;10.44;70.53;99881.06;5094862;28;8895;-62
2023/04/07 10:56:19;;;;;;;;;5.00;4.00;;;;;10.41;70.74;99882.16;5095119;28;8826;-60
2023/04/07 10:58:47;;;;;;;;;8.50;6.75;;;;;10.41;70.80;99878.69;5094149;28;8806;-62
2023/04/07 11:01:14;;;;;;;;;9.75;7.00;;;;;10.41;70.60;99881.34;5094793;28;8862;-59
2023/04/07 11:03:42;;;;;;;;;5.75;5.75;;;;;10.44;70.47;99881.94;5095266;28;8903;-61
2023/04/07 11:06:10;;;;;;;;;4.00;4.00;;;;;10.50;69.94;99881.47;5095253;28;8810;-60
2023/04/07 11:08:38;;;;;;;;;5.50;5.50;;;;;10.58;70.05;99884.34;5095427;28;8826;-59
2023/04/07 11:11:08;;;;;;;;;3.50;3.25;;;;;10.64;70.41;99883.84;5094291;28;8834;-60
2023/04/07 11:13:36;;;;;;;;;6.75;6.50;;;;;10.70;70.34;99883.34;5094081;28;8952;-62
2023/04/07 11:16:04;;;;;;;;;6.50;6.00;;;;;10.74;70.00;99879.47;5094344;28;8826;-61
2023/04/07 11:18:32;;;;;;;;;6.00;4.00;;;;;10.79;70.01;99887.06;5094813;28;8846;-59
2023/04/07 11:21:00;;;;;;;;;6.00;5.50;;;;;10.81;69.73;99886.00;5095435;28;8860;-60
2023/04/07 11:23:29;;;;;;;;;5.00;4.00;;;;;10.78;69.84;99878.22;5094920;28;8915;-62
2023/04/07 11:25:56;;;;;;;;;6.75;6.00;;;;;10.76;70.55;99887.34;5094715;28;8822;-63
2023/04/07 11:28:25;;;;;;;;;6.00;3.00;;;;;10.69;70.07;99900.28;5094807;28;8806;-61
2023/04/07 11:30:53;;;;;;;;;7.00;7.00;;;;;10.64;70.36;99897.16;5095254;28;8846;-62
2023/04/07 11:33:21;;;;;;;;;9.00;7.00;;;;;10.61;71.03;99893.91;5094772;28;8944;-61
2023/04/07 11:35:49;;;;;;;;;6.25;5.00;;;;;10.57;71.02;99909.28;5095203;28;8914;-61
2023/04/07 11:38:17;;;;;;;;;4.00;3.00;;;;;10.53;71.02;99899.84;5095129;28;9003;-62
2023/04/07 11:40:46;;;;;;;;;7.75;5.00;;;;;10.50;71.18;99905.41;5094587;28;8854;-61
2023/04/07 11:43:14;;;;;;;;;6.50;5.00;;;;;10.46;70.97;99905.78;5094908;28;8838;-59
2023/04/07 11:45:42;;;;;;;;;3.75;3.25;;;;;10.42;71.25;99907.84;5095235;28;8838;-60
2023/04/07 11:48:10;;;;;;;;;6.00;6.00;;;;;10.38;71.28;99913.50;5098002;28;8930;-59